createdAt,value
2018-03-31T00:02:15.426Z,78.95
2018-03-31T00:04:41.185Z,79.12
2018-03-31T00:07:07.004Z,78.86
2018-03-31T00:09:32.753Z,78.90
2018-03-31T00:11:58.485Z,78.96
2018-03-31T00:14:24.195Z,79.28
2018-03-31T00:16:49.960Z,79.24
2018-03-31T00:19:15.861Z,79.42
2018-03-31T00:21:41.716Z,79.18
2018-03-31T00:24:07.453Z,79.18
2018-03-31T00:26:33.208Z,79.14
2018-03-31T00:28:59.017Z,78.32
2018-03-31T00:31:24.754Z,78.21
2018-03-31T00:33:50.489Z,79.00
2018-03-31T00:36:16.230Z,79.24
2018-03-31T00:38:42.047Z,79.30
2018-03-31T00:41:07.841Z,79.28
2018-03-31T00:43:33.653Z,79.39
2018-03-31T00:45:59.420Z,79.72
2018-03-31T00:48:25.137Z,79.54
2018-03-31T00:50:50.900Z,79.57
2018-03-31T00:53:16.630Z,79.38
2018-03-31T00:55:42.375Z,79.34
2018-03-31T00:58:08.137Z,79.55
2018-03-31T01:00:33.991Z,79.40
2018-03-31T01:02:59.773Z,79.66
2018-03-31T01:05:25.531Z,79.37
2018-03-31T01:07:51.346Z,79.26
2018-03-31T01:10:17.101Z,79.97
2018-03-31T01:12:42.835Z,79.87
2018-03-31T01:15:08.589Z,79.94
2018-03-31T01:17:34.337Z,80.14
2018-03-31T01:20:00.150Z,79.85
2018-03-31T01:22:25.898Z,80.25
2018-03-31T01:24:51.633Z,80.15
2018-03-31T01:27:17.361Z,80.46
2018-03-31T01:29:43.164Z,80.33
2018-03-31T01:32:08.945Z,81.14
2018-03-31T01:34:34.690Z,80.83
2018-03-31T01:37:00.444Z,80.61
2018-03-31T01:39:26.197Z,79.57
2018-03-31T01:41:51.971Z,79.83
2018-03-31T01:44:17.790Z,79.88
2018-03-31T01:46:43.625Z,79.99
2018-03-31T01:49:09.421Z,79.63
2018-03-31T01:51:35.148Z,79.40
2018-03-31T01:54:00.929Z,79.09
2018-03-31T01:56:26.642Z,79.44
2018-03-31T01:58:52.389Z,79.91
2018-03-31T02:01:18.208Z,79.99
2018-03-31T02:03:43.957Z,80.65
2018-03-31T02:06:09.682Z,80.56
2018-03-31T02:08:35.477Z,80.23
2018-03-31T02:11:01.238Z,80.03
2018-03-31T02:13:27.107Z,81.41
2018-03-31T02:15:52.866Z,82.72
2018-03-31T02:18:18.670Z,82.34
2018-03-31T02:20:44.512Z,81.69
2018-03-31T02:23:10.255Z,82.07
2018-03-31T02:25:36.033Z,82.58
2018-03-31T02:28:01.792Z,82.16
2018-03-31T02:30:27.587Z,81.52
2018-03-31T02:32:53.348Z,80.84
2018-03-31T02:35:19.136Z,80.64
2018-03-31T02:37:44.948Z,80.74
2018-03-31T02:40:10.709Z,80.94
2018-03-31T02:42:36.521Z,80.99
2018-03-31T02:45:02.458Z,81.21
2018-03-31T02:47:28.214Z,81.62
2018-03-31T02:49:53.965Z,81.63
2018-03-31T02:52:19.867Z,81.39
2018-03-31T02:54:45.620Z,81.03
2018-03-31T02:57:11.439Z,80.94
2018-03-31T02:59:37.235Z,81.00
2018-03-31T03:02:02.983Z,81.13
2018-03-31T03:04:28.728Z,81.02
2018-03-31T03:06:54.466Z,81.40
2018-03-31T03:09:20.225Z,81.54
2018-03-31T03:11:45.934Z,82.32
2018-03-31T03:14:11.717Z,81.61
2018-03-31T03:16:37.470Z,80.69
2018-03-31T03:19:03.223Z,80.19
2018-03-31T03:21:29.006Z,80.45
2018-03-31T03:23:54.794Z,80.79
2018-03-31T03:26:20.534Z,80.66
2018-03-31T03:28:46.522Z,81.15
2018-03-31T03:31:12.270Z,80.95
2018-03-31T03:33:38.012Z,81.23
2018-03-31T03:36:03.794Z,81.07
2018-03-31T03:38:30.207Z,81.41
2018-03-31T03:40:56.083Z,81.63
2018-03-31T03:43:21.910Z,81.91
2018-03-31T03:45:47.736Z,81.75
2018-03-31T03:48:13.486Z,81.69
2018-03-31T03:50:39.201Z,81.94
2018-03-31T03:53:04.981Z,81.92
2018-03-31T03:55:30.720Z,81.97
2018-03-31T03:57:56.465Z,82.40
2018-03-31T04:00:22.191Z,82.89
2018-03-31T04:02:47.909Z,82.24
2018-03-31T04:05:13.672Z,81.87
2018-03-31T04:07:39.521Z,81.67
2018-03-31T04:10:05.346Z,82.24
2018-03-31T04:12:31.161Z,82.12
2018-03-31T04:14:56.975Z,82.53
2018-03-31T04:17:22.701Z,82.79
2018-03-31T04:19:48.509Z,82.29
2018-03-31T04:22:14.234Z,82.30
2018-03-31T04:24:40.027Z,82.65
2018-03-31T04:27:05.797Z,83.77
2018-03-31T04:29:31.588Z,84.97
2018-03-31T04:31:57.377Z,85.77
2018-03-31T04:34:23.157Z,85.68
2018-03-31T04:36:48.933Z,85.68
2018-03-31T04:39:14.730Z,86.64
2018-03-31T04:41:40.479Z,84.78
2018-03-31T04:44:06.368Z,84.81
2018-03-31T04:46:32.177Z,85.55
2018-03-31T04:48:57.960Z,85.71
2018-03-31T04:51:23.756Z,83.95
2018-03-31T04:53:49.532Z,83.47
2018-03-31T04:56:15.794Z,83.41
2018-03-31T04:58:41.529Z,83.72
2018-03-31T05:01:07.344Z,83.96
2018-03-31T05:03:33.108Z,84.17
2018-03-31T05:05:58.847Z,84.88
2018-03-31T05:08:24.595Z,85.20
2018-03-31T05:10:50.374Z,85.56
2018-03-31T05:13:16.141Z,85.98
2018-03-31T05:15:41.925Z,86.08
2018-03-31T05:18:07.758Z,86.41
2018-03-31T05:20:33.522Z,86.50
2018-03-31T05:22:59.256Z,87.40
2018-03-31T05:25:25.058Z,86.94
2018-03-31T05:27:50.817Z,86.47
2018-03-31T05:30:16.587Z,86.70
2018-03-31T05:32:42.370Z,86.63
2018-03-31T05:35:08.129Z,86.28
2018-03-31T05:37:33.886Z,86.67
2018-03-31T05:39:59.717Z,86.86
2018-03-31T05:42:25.630Z,87.05
2018-03-31T05:44:51.501Z,87.23
2018-03-31T05:47:17.238Z,87.25
2018-03-31T05:49:43.004Z,87.09
2018-03-31T05:52:08.717Z,87.09
2018-03-31T05:54:34.445Z,87.18
2018-03-31T05:57:00.187Z,86.79
2018-03-31T05:59:25.925Z,86.77
2018-03-31T06:01:51.693Z,86.71
2018-03-31T06:04:17.464Z,86.60
2018-03-31T06:06:43.266Z,86.41
2018-03-31T06:09:09.010Z,86.40
2018-03-31T06:11:34.802Z,86.18
2018-03-31T06:14:00.585Z,86.89
2018-03-31T06:16:26.384Z,85.94
2018-03-31T06:18:52.285Z,86.18
2018-03-31T06:21:18.090Z,86.58
2018-03-31T06:23:43.906Z,85.43
2018-03-31T06:26:09.662Z,86.15
2018-03-31T06:28:35.497Z,85.24
2018-03-31T06:31:01.257Z,85.28
2018-03-31T06:33:27.049Z,85.39
2018-03-31T06:35:52.792Z,84.86
2018-03-31T06:38:18.561Z,84.60
2018-03-31T06:40:44.310Z,84.66
2018-03-31T06:43:10.062Z,84.52
2018-03-31T06:45:35.813Z,84.51
2018-03-31T06:48:01.533Z,84.57
2018-03-31T06:50:27.270Z,84.86
2018-03-31T06:52:53.021Z,84.29
2018-03-31T06:55:18.784Z,84.00
2018-03-31T06:57:44.502Z,83.70
2018-03-31T07:00:10.342Z,83.83
2018-03-31T07:02:36.121Z,83.86
2018-03-31T07:05:01.866Z,83.99
2018-03-31T07:07:27.689Z,83.96
2018-03-31T07:09:53.490Z,83.77
2018-03-31T07:12:19.264Z,83.70
2018-03-31T07:14:44.981Z,83.51
2018-03-31T07:17:10.744Z,83.42
2018-03-31T07:19:36.460Z,83.21
2018-03-31T07:22:02.308Z,83.30
2018-03-31T07:24:28.049Z,83.60
2018-03-31T07:26:53.806Z,83.03
2018-03-31T07:29:19.550Z,82.67
2018-03-31T07:31:45.334Z,82.79
2018-03-31T07:34:11.077Z,83.07
2018-03-31T07:36:36.805Z,83.11
2018-03-31T07:39:02.628Z,83.40
2018-03-31T07:41:28.409Z,83.39
2018-03-31T07:43:54.157Z,83.35
2018-03-31T07:46:19.917Z,83.39
2018-03-31T07:48:45.674Z,82.98
2018-03-31T07:51:11.463Z,83.16
2018-03-31T07:53:37.183Z,82.98
2018-03-31T07:56:02.957Z,82.69
2018-03-31T07:58:28.750Z,83.11
2018-03-31T08:00:54.511Z,83.64
2018-03-31T08:03:20.246Z,83.73
2018-03-31T08:05:46.062Z,83.61
2018-03-31T08:08:11.805Z,83.45
2018-03-31T08:10:37.557Z,83.57
2018-03-31T08:13:03.327Z,83.23
2018-03-31T08:15:29.086Z,83.55
2018-03-31T08:17:54.864Z,83.83
2018-03-31T08:20:20.633Z,83.91
2018-03-31T08:22:46.523Z,84.00
2018-03-31T08:25:12.241Z,83.63
2018-03-31T08:27:38.013Z,83.21
2018-03-31T08:30:03.890Z,82.60
2018-03-31T08:32:29.623Z,82.23
2018-03-31T08:34:55.431Z,82.37
2018-03-31T08:37:21.167Z,82.44
2018-03-31T08:39:46.902Z,82.64
2018-03-31T08:42:12.665Z,83.09
2018-03-31T08:44:38.526Z,84.19
2018-03-31T08:47:04.313Z,84.88
2018-03-31T08:49:30.058Z,84.67
2018-03-31T08:51:55.805Z,85.43
2018-03-31T08:54:21.540Z,84.95
2018-03-31T08:56:47.305Z,84.94
2018-03-31T08:59:13.057Z,84.31
2018-03-31T09:01:38.853Z,82.37
2018-03-31T09:04:04.613Z,82.27
2018-03-31T09:06:30.374Z,81.49
2018-03-31T09:08:56.154Z,81.51
2018-03-31T09:11:21.910Z,81.87
2018-03-31T09:13:47.656Z,82.06
2018-03-31T09:16:13.401Z,81.57
2018-03-31T09:18:39.158Z,80.94
2018-03-31T09:21:04.913Z,80.33
2018-03-31T09:23:30.666Z,80.33
2018-03-31T09:25:56.425Z,79.38
2018-03-31T09:28:22.204Z,78.79
2018-03-31T09:30:47.955Z,78.85
2018-03-31T09:33:13.721Z,78.59
2018-03-31T09:35:39.510Z,78.52
2018-03-31T09:38:05.306Z,78.16
2018-03-31T09:40:31.040Z,78.81
2018-03-31T09:42:56.803Z,79.14
2018-03-31T09:45:22.663Z,79.11
2018-03-31T09:47:48.481Z,79.41
2018-03-31T09:50:14.329Z,79.90
2018-03-31T09:52:40.078Z,78.96
2018-03-31T09:55:05.855Z,78.73
2018-03-31T09:57:31.569Z,78.58
2018-03-31T09:59:57.330Z,78.68
2018-03-31T10:02:23.073Z,78.67
2018-03-31T10:04:48.865Z,78.20
2018-03-31T10:07:14.625Z,78.14
2018-03-31T10:09:40.361Z,77.07
2018-03-31T10:12:06.106Z,77.03
2018-03-31T10:14:31.854Z,76.91
2018-03-31T10:16:57.573Z,77.32
2018-03-31T10:19:23.312Z,76.92
2018-03-31T10:21:49.066Z,76.59
2018-03-31T10:24:14.822Z,77.15
2018-03-31T10:26:40.621Z,77.05
2018-03-31T10:29:06.333Z,75.65
2018-03-31T10:31:32.081Z,74.69
2018-03-31T10:33:57.878Z,73.62
2018-03-31T10:36:23.635Z,72.55
2018-03-31T10:38:49.444Z,72.31
2018-03-31T10:41:15.187Z,72.29
2018-03-31T10:43:41.000Z,71.75
2018-03-31T10:46:06.746Z,70.46
2018-03-31T10:48:32.572Z,69.44
2018-03-31T10:50:58.385Z,68.59
2018-03-31T10:53:24.160Z,67.76
2018-03-31T10:55:49.930Z,68.51
2018-03-31T10:58:15.774Z,68.29
2018-03-31T11:00:41.524Z,67.45
2018-03-31T11:03:07.307Z,67.87
2018-03-31T11:05:33.128Z,67.53
2018-03-31T11:07:58.982Z,67.32
2018-03-31T11:10:24.748Z,69.28
2018-03-31T11:12:50.561Z,68.09
2018-03-31T11:15:16.338Z,68.09
2018-03-31T11:17:42.089Z,67.84
2018-03-31T11:20:07.833Z,68.80
2018-03-31T11:22:33.577Z,68.60
2018-03-31T11:24:59.524Z,69.19
2018-03-31T11:27:25.297Z,69.08
2018-03-31T11:29:51.049Z,68.37
2018-03-31T11:32:16.788Z,68.99
2018-03-31T11:34:42.590Z,70.16
2018-03-31T11:37:08.325Z,69.13
2018-03-31T11:39:34.094Z,68.71
2018-03-31T11:41:59.836Z,69.04
2018-03-31T11:44:25.671Z,68.52
2018-03-31T11:46:51.463Z,68.55
2018-03-31T11:49:17.197Z,68.53
2018-03-31T11:51:42.897Z,68.94
2018-03-31T11:54:08.630Z,68.26
2018-03-31T11:56:34.409Z,66.98
2018-03-31T11:59:00.171Z,67.28
2018-03-31T12:01:25.946Z,65.33
2018-03-31T12:03:51.857Z,64.74
2018-03-31T12:06:17.605Z,63.76
2018-03-31T12:08:43.400Z,61.73
2018-03-31T12:11:09.142Z,62.15
2018-03-31T12:13:34.885Z,61.99
2018-03-31T12:16:00.690Z,61.62
2018-03-31T12:18:26.823Z,61.93
2018-03-31T12:20:52.636Z,63.24
2018-03-31T12:23:18.445Z,64.04
2018-03-31T12:25:44.222Z,64.66
2018-03-31T12:28:09.983Z,65.36
2018-03-31T12:30:35.861Z,65.54
2018-03-31T12:33:01.668Z,65.33
2018-03-31T12:35:27.444Z,66.05
2018-03-31T12:37:53.251Z,65.76
2018-03-31T12:40:19.066Z,65.94
2018-03-31T12:42:44.798Z,66.37
2018-03-31T12:45:10.547Z,66.46
2018-03-31T12:47:36.309Z,66.63
2018-03-31T12:50:02.108Z,66.47
2018-03-31T12:52:27.943Z,66.98
2018-03-31T12:54:53.726Z,66.69
2018-03-31T12:57:19.547Z,66.11
2018-03-31T12:59:45.347Z,65.95
2018-03-31T13:02:11.078Z,66.84
2018-03-31T13:04:36.953Z,65.85
2018-03-31T13:07:03.075Z,66.07
2018-03-31T13:09:28.827Z,65.69
2018-03-31T13:11:54.582Z,66.41
2018-03-31T13:14:20.426Z,66.95
2018-03-31T13:16:46.258Z,67.68
2018-03-31T13:19:12.038Z,67.38
2018-03-31T13:21:37.821Z,67.60
2018-03-31T13:24:03.582Z,67.69
2018-03-31T13:26:29.359Z,68.17
2018-03-31T13:28:55.142Z,68.35
2018-03-31T13:31:20.925Z,69.47
2018-03-31T13:33:46.684Z,69.93
2018-03-31T13:36:12.453Z,69.59
2018-03-31T13:38:38.194Z,68.42
2018-03-31T13:41:03.974Z,68.69
2018-03-31T13:43:29.753Z,69.41
2018-03-31T13:45:55.547Z,72.25
2018-03-31T13:48:21.355Z,73.08
2018-03-31T13:50:47.244Z,73.56
2018-03-31T13:53:12.971Z,74.07
2018-03-31T13:55:38.755Z,73.59
2018-03-31T13:58:04.510Z,73.90
2018-03-31T14:00:30.308Z,70.08
2018-03-31T14:02:56.041Z,68.34
2018-03-31T14:05:21.818Z,68.36
2018-03-31T14:07:47.591Z,68.63
2018-03-31T14:10:13.355Z,69.59
2018-03-31T14:12:39.140Z,69.49
2018-03-31T14:15:04.948Z,72.11
2018-03-31T14:17:30.710Z,81.00
2018-03-31T14:19:56.537Z,81.99
2018-03-31T14:22:22.331Z,84.39
2018-03-31T14:24:48.112Z,84.26
2018-03-31T14:27:13.892Z,83.59
2018-03-31T14:29:39.642Z,84.50
2018-03-31T14:32:05.392Z,84.33
2018-03-31T14:34:31.199Z,85.95
2018-03-31T14:36:57.017Z,84.28
2018-03-31T14:39:22.885Z,84.35
2018-03-31T14:41:48.645Z,84.11
2018-03-31T14:44:14.432Z,85.07
2018-03-31T14:46:40.171Z,85.56
2018-03-31T14:49:05.894Z,85.02
2018-03-31T14:51:31.650Z,86.72
2018-03-31T14:53:57.429Z,86.38
2018-03-31T14:56:23.193Z,85.06
2018-03-31T14:58:48.994Z,85.66
2018-03-31T15:01:14.799Z,84.74
2018-03-31T15:03:40.578Z,85.70
2018-03-31T15:06:06.329Z,85.68
2018-03-31T15:08:32.158Z,86.42
2018-03-31T15:10:57.967Z,86.70
2018-03-31T15:13:24.809Z,87.57
2018-03-31T15:15:50.642Z,87.06
2018-03-31T15:18:16.516Z,86.95
2018-03-31T15:20:42.332Z,87.07
2018-03-31T15:23:08.150Z,87.13
2018-03-31T15:25:33.970Z,85.95
2018-03-31T15:27:59.774Z,85.13
2018-03-31T15:30:25.558Z,85.85
2018-03-31T15:32:51.379Z,84.83
2018-03-31T15:35:17.117Z,86.17
2018-03-31T15:37:42.880Z,85.17
2018-03-31T15:40:08.736Z,84.95
2018-03-31T15:42:34.525Z,85.70
2018-03-31T15:45:00.331Z,84.58
2018-03-31T15:47:26.067Z,83.80
2018-03-31T15:49:51.805Z,83.15
2018-03-31T15:52:17.929Z,83.56
2018-03-31T15:54:43.673Z,83.52
2018-03-31T15:57:09.486Z,83.17
2018-03-31T15:59:35.278Z,83.40
2018-03-31T16:02:02.078Z,83.04
2018-03-31T16:04:27.834Z,82.71
2018-03-31T16:06:53.591Z,82.14
2018-03-31T16:09:19.378Z,81.32
2018-03-31T16:11:45.118Z,81.99
2018-03-31T16:14:10.921Z,80.84
2018-03-31T16:16:36.650Z,80.47
2018-03-31T16:19:02.478Z,80.76
2018-03-31T16:21:28.205Z,81.81
2018-03-31T16:23:53.949Z,80.87
2018-03-31T16:26:19.719Z,81.29
2018-03-31T16:28:45.517Z,81.10
2018-03-31T16:31:11.277Z,82.17
2018-03-31T16:33:37.020Z,82.15
2018-03-31T16:36:02.833Z,82.43
2018-03-31T16:38:28.583Z,82.85
2018-03-31T16:40:54.327Z,82.71
2018-03-31T16:43:20.121Z,82.91
2018-03-31T16:45:45.857Z,82.97
2018-03-31T16:48:11.602Z,83.25
2018-03-31T16:50:37.361Z,82.82
2018-03-31T16:53:03.123Z,83.01
2018-03-31T16:55:28.845Z,83.24
2018-03-31T16:57:54.634Z,82.81
2018-03-31T17:00:20.392Z,82.58
2018-03-31T17:02:46.182Z,82.69
2018-03-31T17:05:11.924Z,83.20
2018-03-31T17:07:37.672Z,82.93
2018-03-31T17:10:04.148Z,83.85
2018-03-31T17:12:29.921Z,83.94
2018-03-31T17:14:55.646Z,83.67
2018-03-31T17:17:21.500Z,83.32
2018-03-31T17:19:47.230Z,83.51
2018-03-31T17:22:12.949Z,83.88
2018-03-31T17:24:38.782Z,83.31
2018-03-31T17:27:04.503Z,83.18
2018-03-31T17:29:30.262Z,83.42
2018-03-31T17:31:56.007Z,83.36
2018-03-31T17:34:21.753Z,84.00
2018-03-31T17:36:47.529Z,84.08
2018-03-31T17:39:13.239Z,83.80
2018-03-31T17:41:38.969Z,84.24
2018-03-31T17:44:04.769Z,84.39
2018-03-31T17:46:30.550Z,84.40
2018-03-31T17:48:56.283Z,84.86
2018-03-31T17:51:22.046Z,85.23
2018-03-31T17:53:47.842Z,84.96
2018-03-31T17:56:13.610Z,84.92
2018-03-31T17:58:39.325Z,84.44
2018-03-31T18:01:05.101Z,84.74
2018-03-31T18:03:30.889Z,84.20
2018-03-31T18:05:56.650Z,84.56
2018-03-31T18:08:22.489Z,84.28
2018-03-31T18:10:48.290Z,83.82
2018-03-31T18:13:14.025Z,83.55
2018-03-31T18:15:39.828Z,82.96
2018-03-31T18:18:05.621Z,83.04
2018-03-31T18:20:31.383Z,83.70
2018-03-31T18:22:57.182Z,83.55
2018-03-31T18:25:22.955Z,83.57
2018-03-31T18:27:48.712Z,83.33
2018-03-31T18:30:14.449Z,83.00
2018-03-31T18:32:40.272Z,83.11
2018-03-31T18:35:06.105Z,82.98
2018-03-31T18:37:32.021Z,83.29
2018-03-31T18:39:57.772Z,82.91
2018-03-31T18:42:23.511Z,83.37
2018-03-31T18:44:49.251Z,82.90
2018-03-31T18:47:15.019Z,82.89
2018-03-31T18:49:40.780Z,83.22
2018-03-31T18:52:06.546Z,83.24
2018-03-31T18:54:32.355Z,83.67
2018-03-31T18:56:58.088Z,83.34
2018-03-31T18:59:23.855Z,83.49
2018-03-31T19:01:49.647Z,83.10
2018-03-31T19:04:15.396Z,82.86
2018-03-31T19:06:41.187Z,83.07
2018-03-31T19:09:06.973Z,82.95
2018-03-31T19:11:32.751Z,83.22
2018-03-31T19:13:58.536Z,83.70
2018-03-31T19:16:30.554Z,84.57
2018-03-31T19:18:56.315Z,84.75
2018-03-31T19:21:22.102Z,84.89
2018-03-31T19:23:47.867Z,84.89
2018-03-31T19:26:13.706Z,84.92
2018-03-31T19:28:39.529Z,85.05
2018-03-31T19:31:05.282Z,85.40
2018-03-31T19:33:31.005Z,85.04
2018-03-31T19:36:03.007Z,84.87
2018-03-31T19:38:28.757Z,84.98
2018-03-31T19:40:54.528Z,84.78
2018-03-31T19:43:20.298Z,84.57
2018-03-31T19:45:46.026Z,85.21
2018-03-31T19:48:11.766Z,84.98
2018-03-31T19:50:37.535Z,84.11
2018-03-31T19:53:03.293Z,83.87
2018-03-31T19:55:29.107Z,84.34
2018-03-31T19:57:54.892Z,84.82
2018-03-31T20:00:20.731Z,84.81
2018-03-31T20:02:46.563Z,85.19
2018-03-31T20:05:12.393Z,85.33
2018-03-31T20:07:38.133Z,85.92
2018-03-31T20:10:04.030Z,86.68
2018-03-31T20:12:29.810Z,86.07
2018-03-31T20:14:55.569Z,86.35
2018-03-31T20:17:21.308Z,86.64
2018-03-31T20:19:47.070Z,86.59
2018-03-31T20:22:13.122Z,86.40
2018-03-31T20:24:38.889Z,86.37
2018-03-31T20:27:04.644Z,86.06
2018-03-31T20:29:30.435Z,86.05
2018-03-31T20:31:56.166Z,86.27
2018-03-31T20:34:21.956Z,86.82
2018-03-31T20:36:47.741Z,87.27
2018-03-31T20:39:13.553Z,87.29
2018-03-31T20:41:39.322Z,87.54
2018-03-31T20:44:05.066Z,87.78
2018-03-31T20:46:30.829Z,87.84
2018-03-31T20:48:56.560Z,87.70
2018-03-31T20:51:22.396Z,87.97
2018-03-31T20:53:48.132Z,87.99
2018-03-31T20:56:13.928Z,87.79
2018-03-31T20:58:39.642Z,88.08
2018-03-31T21:01:05.386Z,87.90
2018-03-31T21:03:31.105Z,87.43
2018-03-31T21:05:57.159Z,87.38
2018-03-31T21:08:22.925Z,87.31
2018-03-31T21:10:48.728Z,87.53
2018-03-31T21:13:14.554Z,87.76
2018-03-31T21:15:40.293Z,88.05
2018-03-31T21:18:06.105Z,87.99
2018-03-31T21:20:31.845Z,87.90
2018-03-31T21:22:57.601Z,87.90
2018-03-31T21:25:23.333Z,88.23
2018-03-31T21:27:49.094Z,87.98
2018-03-31T21:30:14.817Z,88.02
2018-03-31T21:32:40.569Z,88.39
2018-03-31T21:35:06.298Z,88.03
2018-03-31T21:37:32.057Z,87.66
2018-03-31T21:39:57.807Z,88.12
2018-03-31T21:42:23.619Z,88.01
2018-03-31T21:44:49.405Z,87.70
2018-03-31T21:47:15.154Z,87.23
2018-03-31T21:49:40.953Z,87.38
2018-03-31T21:52:06.659Z,87.57
2018-03-31T21:54:32.417Z,88.19
2018-03-31T21:56:58.605Z,88.31
2018-03-31T21:59:24.346Z,88.40
2018-03-31T22:01:50.078Z,88.75
2018-03-31T22:04:15.818Z,89.06
2018-03-31T22:06:41.558Z,88.99
2018-03-31T22:09:07.289Z,89.24
2018-03-31T22:11:33.075Z,89.38
2018-03-31T22:14:04.958Z,89.38
2018-03-31T22:16:30.717Z,89.65
2018-03-31T22:18:56.470Z,89.79
2018-03-31T22:21:22.250Z,89.78
2018-03-31T22:23:48.034Z,89.73
2018-03-31T22:26:13.789Z,89.38
2018-03-31T22:28:39.522Z,89.34
2018-03-31T22:31:05.289Z,89.32
2018-03-31T22:33:31.042Z,89.15
2018-03-31T22:35:56.809Z,88.78
2018-03-31T22:38:22.567Z,89.08
2018-03-31T22:40:48.302Z,90.65
2018-03-31T22:43:14.122Z,87.98
2018-03-31T22:45:39.932Z,87.93
2018-03-31T22:48:05.694Z,88.55
2018-03-31T22:50:31.457Z,88.04
2018-03-31T22:52:57.217Z,87.69
2018-03-31T22:55:22.978Z,87.19
2018-03-31T22:57:48.803Z,87.55
2018-03-31T23:00:14.531Z,87.85
2018-03-31T23:02:40.342Z,88.28
2018-03-31T23:05:06.149Z,88.87
2018-03-31T23:07:31.910Z,88.81
2018-03-31T23:09:57.764Z,88.61
2018-03-31T23:12:23.601Z,88.60
2018-03-31T23:14:49.319Z,88.60
2018-03-31T23:17:15.072Z,88.25
2018-03-31T23:19:40.852Z,88.03
2018-03-31T23:22:06.686Z,87.77
2018-03-31T23:24:32.460Z,87.81
2018-03-31T23:26:58.194Z,87.48
2018-03-31T23:29:23.940Z,87.20
2018-03-31T23:31:49.888Z,86.99
2018-03-31T23:34:15.682Z,87.58
2018-03-31T23:36:41.436Z,87.56
2018-03-31T23:39:07.197Z,87.21
2018-03-31T23:41:32.989Z,87.28
2018-03-31T23:43:58.776Z,87.05
2018-03-31T23:46:24.532Z,86.71
2018-03-31T23:48:50.309Z,86.44
2018-03-31T23:51:16.105Z,86.42
2018-03-31T23:53:41.866Z,86.39
2018-03-31T23:56:07.586Z,86.59
2018-03-31T23:58:33.305Z,86.45
